createdAt,value
2024-03-28T00:00:05.663Z,77.16
2024-03-28T00:00:25.637Z,77.12
2024-03-28T00:00:35.590Z,77.12
2024-03-28T00:00:46.455Z,77.12
2024-03-28T00:00:58.063Z,77.12
2024-03-28T00:01:05.588Z,77.12
2024-03-28T00:01:15.582Z,77.12
2024-03-28T00:01:25.660Z,77.02
2024-03-28T00:01:35.594Z,77.12
2024-03-28T00:01:46.061Z,77.16
2024-03-28T00:02:05.627Z,77.22
2024-03-28T00:02:15.587Z,77.12
2024-03-28T00:02:25.659Z,77.16
2024-03-28T00:02:35.673Z,77.22
2024-03-28T00:02:46.503Z,77.19
2024-03-28T00:02:55.599Z,77.22
2024-03-28T00:03:15.575Z,77.26
2024-03-28T00:03:25.575Z,77.26
2024-03-28T00:03:35.585Z,77.22
2024-03-28T00:03:45.579Z,77.26
2024-03-28T00:03:55.615Z,77.22
2024-03-28T00:04:05.607Z,77.33
2024-03-28T00:04:15.665Z,77.22
2024-03-28T00:04:35.579Z,77.33
2024-03-28T00:04:45.581Z,77.33
2024-03-28T00:04:55.556Z,77.36
2024-03-28T00:05:05.558Z,77.36
2024-03-28T00:05:15.585Z,77.33
2024-03-28T00:05:25.623Z,77.33
2024-03-28T00:05:35.596Z,77.36
2024-03-28T00:05:45.574Z,77.47
2024-03-28T00:05:55.645Z,77.47
2024-03-28T00:06:05.558Z,77.33
2024-03-28T00:06:25.570Z,77.47
2024-03-28T00:06:35.566Z,77.43
2024-03-28T00:06:45.566Z,77.56
2024-03-28T00:06:55.637Z,77.43
2024-03-28T00:07:05.570Z,77.43
2024-03-28T00:07:15.617Z,77.56
2024-03-28T00:07:25.688Z,77.43
2024-03-28T00:07:36.498Z,77.43
2024-03-28T00:07:45.551Z,77.43
2024-03-28T00:08:05.573Z,77.43
2024-03-28T00:08:15.552Z,77.56
2024-03-28T00:08:25.604Z,77.53
2024-03-28T00:08:35.571Z,77.56
2024-03-28T00:08:45.558Z,77.53
2024-03-28T00:08:55.595Z,77.56
2024-03-28T00:09:15.599Z,77.67
2024-03-28T00:09:25.572Z,77.67
2024-03-28T00:09:35.619Z,77.67
2024-03-28T00:09:45.658Z,77.56
2024-03-28T00:09:55.549Z,77.53
2024-03-28T00:10:05.572Z,77.56
2024-03-28T00:10:25.609Z,77.56
2024-03-28T00:10:35.541Z,77.53
2024-03-28T00:10:45.612Z,77.56
2024-03-28T00:10:55.533Z,77.56
2024-03-28T00:11:06.530Z,77.56
2024-03-28T00:11:15.531Z,77.53
2024-03-28T00:11:25.704Z,77.53
2024-03-28T00:11:46.596Z,77.56
2024-03-28T00:11:55.686Z,77.53
2024-03-28T00:12:05.611Z,77.47
2024-03-28T00:12:15.580Z,77.47
2024-03-28T00:12:25.520Z,77.47
2024-03-28T00:12:35.551Z,77.56
2024-03-28T00:12:55.519Z,77.53
2024-03-28T00:13:05.556Z,77.43
2024-03-28T00:13:15.552Z,77.56
2024-03-28T00:13:25.525Z,77.56
2024-03-28T00:13:35.546Z,77.56
2024-03-28T00:13:48.576Z,77.43
2024-03-28T00:13:56.746Z,77.56
2024-03-28T00:14:06.497Z,77.53
2024-03-28T00:14:15.600Z,77.56
2024-03-28T00:14:25.527Z,77.56
2024-03-28T00:14:45.547Z,77.53
2024-03-28T00:14:56.508Z,77.56
2024-03-28T00:15:05.527Z,77.56
2024-03-28T00:15:15.509Z,77.53
2024-03-28T00:15:25.592Z,77.53
2024-03-28T00:15:35.620Z,77.56
2024-03-28T00:15:45.621Z,77.53
2024-03-28T00:15:56.633Z,77.53
2024-03-28T00:16:15.626Z,77.56
2024-03-28T00:16:26.551Z,77.56
2024-03-28T00:16:35.565Z,77.56
2024-03-28T00:16:45.524Z,77.53
2024-03-28T00:16:55.547Z,77.56
2024-03-28T00:17:05.541Z,77.53
2024-03-28T00:17:25.562Z,77.56
2024-03-28T00:17:35.527Z,77.67
2024-03-28T00:17:45.508Z,77.67
2024-03-28T00:17:56.066Z,77.63
2024-03-28T00:18:05.509Z,77.67
2024-03-28T00:18:15.573Z,77.67
2024-03-28T00:18:35.588Z,77.67
2024-03-28T00:18:45.525Z,77.63
2024-03-28T00:18:55.514Z,77.67
2024-03-28T00:19:07.217Z,77.63
2024-03-28T00:19:16.220Z,77.56
2024-03-28T00:19:30.625Z,77.63
2024-03-28T00:19:36.378Z,77.56
2024-03-28T00:19:45.557Z,77.63
2024-03-28T00:20:05.709Z,77.56
2024-03-28T00:20:15.502Z,77.53
2024-03-28T00:20:25.538Z,77.56
2024-03-28T00:20:35.634Z,77.53
2024-03-28T00:20:45.548Z,77.53
2024-03-28T00:20:55.558Z,77.53
2024-03-28T00:21:15.504Z,77.56
2024-03-28T00:21:25.527Z,77.56
2024-03-28T00:21:35.565Z,77.53
2024-03-28T00:21:46.078Z,77.56
2024-03-28T00:21:55.512Z,77.56
2024-03-28T00:22:06.035Z,77.67
2024-03-28T00:22:15.535Z,77.67
2024-03-28T00:22:25.550Z,77.63
2024-03-28T00:22:45.511Z,77.67
2024-03-28T00:22:55.501Z,77.67
2024-03-28T00:23:05.498Z,77.67
2024-03-28T00:23:15.467Z,77.63
2024-03-28T00:23:25.692Z,77.63
2024-03-28T00:23:35.591Z,77.63
2024-03-28T00:23:55.500Z,77.77
2024-03-28T00:24:05.533Z,77.77
2024-03-28T00:24:15.628Z,77.73
2024-03-28T00:24:26.014Z,77.73
2024-03-28T00:24:35.525Z,77.77
2024-03-28T00:24:45.524Z,77.73
2024-03-28T00:24:55.645Z,77.73
2024-03-28T00:25:05.537Z,77.63
2024-03-28T00:25:25.512Z,77.73
2024-03-28T00:25:35.533Z,77.73
2024-03-28T00:25:45.555Z,77.77
2024-03-28T00:25:55.501Z,77.63
2024-03-28T00:26:05.521Z,77.77
2024-03-28T00:26:15.556Z,77.73
2024-03-28T00:26:26.020Z,77.77
2024-03-28T00:26:45.481Z,77.77
2024-03-28T00:26:55.510Z,77.73
2024-03-28T00:27:05.456Z,77.73
2024-03-28T00:27:15.532Z,77.77
2024-03-28T00:27:25.512Z,77.77
2024-03-28T00:27:35.563Z,77.67
2024-03-28T00:27:45.491Z,77.77
2024-03-28T00:27:55.534Z,77.77
2024-03-28T00:28:05.564Z,77.77
2024-03-28T00:28:15.655Z,77.77
2024-03-28T00:28:25.664Z,77.77
2024-03-28T00:28:45.458Z,77.77
2024-03-28T00:28:55.459Z,77.73
2024-03-28T00:29:05.477Z,77.77
2024-03-28T00:29:15.502Z,77.73
2024-03-28T00:29:25.634Z,77.77
2024-03-28T00:29:35.466Z,77.77
2024-03-28T00:29:45.467Z,77.77
2024-03-28T00:30:05.454Z,77.77
2024-03-28T00:30:15.513Z,77.77
2024-03-28T00:30:25.645Z,77.73
2024-03-28T00:30:35.584Z,77.77
2024-03-28T00:30:45.474Z,77.77
2024-03-28T00:30:55.588Z,77.87
2024-03-28T00:31:05.484Z,77.77
2024-03-28T00:31:25.452Z,77.73
2024-03-28T00:31:35.494Z,77.77
2024-03-28T00:31:45.460Z,77.87
2024-03-28T00:31:55.562Z,77.87
2024-03-28T00:32:05.491Z,77.87
2024-03-28T00:32:15.477Z,77.77
2024-03-28T00:32:35.535Z,77.83
2024-03-28T00:32:45.598Z,77.83
2024-03-28T00:32:55.454Z,77.87
2024-03-28T00:33:05.466Z,77.91
2024-03-28T00:33:18.880Z,77.97
2024-03-28T00:33:25.456Z,77.87
2024-03-28T00:33:35.445Z,77.97
2024-03-28T00:33:55.481Z,77.97
2024-03-28T00:34:05.468Z,77.97
2024-03-28T00:34:15.496Z,77.97
2024-03-28T00:34:26.054Z,78.08
2024-03-28T00:34:35.501Z,78.11
2024-03-28T00:34:45.444Z,78.08
2024-03-28T00:34:55.474Z,78.08
2024-03-28T00:35:15.431Z,77.94
2024-03-28T00:35:25.529Z,78.08
2024-03-28T00:35:35.416Z,78.08
2024-03-28T00:35:45.441Z,77.97
2024-03-28T00:35:55.626Z,77.97
2024-03-28T00:36:05.407Z,77.97
2024-03-28T00:36:25.613Z,77.83
2024-03-28T00:36:36.037Z,77.87
2024-03-28T00:36:45.428Z,77.87
2024-03-28T00:36:55.501Z,77.73
2024-03-28T00:37:05.434Z,77.77
2024-03-28T00:37:15.535Z,77.77
2024-03-28T00:37:35.421Z,77.67
2024-03-28T00:37:45.425Z,77.67
2024-03-28T00:37:55.484Z,77.67
2024-03-28T00:38:05.499Z,77.67
2024-03-28T00:38:15.455Z,77.67
2024-03-28T00:38:25.553Z,77.67
2024-03-28T00:38:36.040Z,77.56
2024-03-28T00:38:45.465Z,77.53
2024-03-28T00:38:55.573Z,77.56
2024-03-28T00:39:15.422Z,77.53
2024-03-28T00:39:25.397Z,77.43
2024-03-28T00:39:35.424Z,77.47
2024-03-28T00:39:45.418Z,77.43
2024-03-28T00:39:55.458Z,77.47
2024-03-28T00:40:05.416Z,77.33
2024-03-28T00:40:15.458Z,77.36
2024-03-28T00:40:25.406Z,77.33
2024-03-28T00:40:45.569Z,77.22
2024-03-28T00:40:55.407Z,77.36
2024-03-28T00:41:05.514Z,77.36
2024-03-28T00:41:15.449Z,77.33
2024-03-28T00:41:25.405Z,77.33
2024-03-28T00:41:35.417Z,77.43
2024-03-28T00:41:55.417Z,77.47
2024-03-28T00:42:05.437Z,77.47
2024-03-28T00:42:15.472Z,77.47
2024-03-28T00:42:26.008Z,77.56
2024-03-28T00:42:35.719Z,77.56
2024-03-28T00:42:45.391Z,77.56
2024-03-28T00:42:55.475Z,77.53
2024-03-28T00:43:05.526Z,77.53
2024-03-28T00:43:25.403Z,77.63
2024-03-28T00:43:35.420Z,77.67
2024-03-28T00:43:45.397Z,77.67
2024-03-28T00:43:55.413Z,77.67
2024-03-28T00:44:05.438Z,77.67
2024-03-28T00:44:15.397Z,77.67
2024-03-28T00:44:26.125Z,77.67
2024-03-28T00:44:45.400Z,77.77
2024-03-28T00:44:55.421Z,77.87
2024-03-28T00:45:05.378Z,77.83
2024-03-28T00:45:15.391Z,77.87
2024-03-28T00:45:25.408Z,77.87
2024-03-28T00:45:35.375Z,77.83
2024-03-28T00:45:55.418Z,77.87
2024-03-28T00:46:05.399Z,77.94
2024-03-28T00:46:15.441Z,78.08
2024-03-28T00:46:25.509Z,78.01
2024-03-28T00:46:35.392Z,77.97
2024-03-28T00:46:45.392Z,77.97
2024-03-28T00:46:58.009Z,77.87
2024-03-28T00:47:15.408Z,77.73
2024-03-28T00:47:25.426Z,77.77
2024-03-28T00:47:35.438Z,77.67
2024-03-28T00:47:45.395Z,77.56
2024-03-28T00:47:55.460Z,77.33
2024-03-28T00:48:05.453Z,77.12
2024-03-28T00:48:15.477Z,76.92
2024-03-28T00:48:35.454Z,76.58
2024-03-28T00:48:45.430Z,76.37
2024-03-28T00:48:55.458Z,76.28
2024-03-28T00:49:05.470Z,76.07
2024-03-28T00:49:15.450Z,75.97
2024-03-28T00:49:25.431Z,75.73
2024-03-28T00:49:45.450Z,75.63
2024-03-28T00:49:55.456Z,75.63
2024-03-28T00:50:05.381Z,75.52
2024-03-28T00:50:15.356Z,75.63
2024-03-28T00:50:25.375Z,75.43
2024-03-28T00:50:35.388Z,75.32
2024-03-28T00:50:55.380Z,75.32
2024-03-28T00:51:05.464Z,75.32
2024-03-28T00:51:15.373Z,75.22
2024-03-28T00:51:25.400Z,75.12
2024-03-28T00:51:35.388Z,75.12
2024-03-28T00:51:45.359Z,75.02
2024-03-28T00:52:05.396Z,75.12
2024-03-28T00:52:15.414Z,74.92
2024-03-28T00:52:25.364Z,74.82
2024-03-28T00:52:35.360Z,74.71
2024-03-28T00:52:45.355Z,74.82
2024-03-28T00:52:55.343Z,74.68
2024-03-28T00:53:05.420Z,74.58
2024-03-28T00:53:15.435Z,74.58
2024-03-28T00:53:25.603Z,74.48
2024-03-28T00:53:45.417Z,74.38
2024-03-28T00:53:55.466Z,74.27
2024-03-28T00:54:06.060Z,74.48
2024-03-28T00:54:15.359Z,74.38
2024-03-28T00:54:25.423Z,74.27
2024-03-28T00:54:35.366Z,74.27
2024-03-28T00:54:55.418Z,74.27
2024-03-28T00:55:05.408Z,74.17
2024-03-28T00:55:15.454Z,74.17
2024-03-28T00:55:25.360Z,74.07
2024-03-28T00:55:36.012Z,74.17
2024-03-28T00:55:45.379Z,74.27
2024-03-28T00:55:58.719Z,74.17
2024-03-28T00:56:15.398Z,74.27
2024-03-28T00:56:25.324Z,74.17
2024-03-28T00:56:35.350Z,74.17
2024-03-28T00:56:45.454Z,74.21
2024-03-28T00:56:55.366Z,74.07
2024-03-28T00:57:05.332Z,74.17
2024-03-28T00:57:25.328Z,74.27
2024-03-28T00:57:35.331Z,74.07
2024-03-28T00:57:45.391Z,74.38
2024-03-28T00:57:55.333Z,74.21
2024-03-28T00:58:05.334Z,74.27
2024-03-28T00:58:15.422Z,74.38
2024-03-28T00:58:35.428Z,74.17
2024-03-28T00:58:45.363Z,74.21
2024-03-28T00:58:55.337Z,74.27
2024-03-28T00:59:05.408Z,74.41
2024-03-28T00:59:15.354Z,74.38
2024-03-28T00:59:26.048Z,74.21
2024-03-28T00:59:45.362Z,74.27
2024-03-28T00:59:55.343Z,74.38
2024-03-28T01:00:05.446Z,74.38
2024-03-28T01:00:15.306Z,74.17
2024-03-28T01:00:25.349Z,74.17
2024-03-28T01:00:35.364Z,74.27
2024-03-28T01:00:45.469Z,74.27
2024-03-28T01:01:05.323Z,74.17
2024-03-28T01:01:15.358Z,74.17
2024-03-28T01:01:25.338Z,74.27
2024-03-28T01:01:35.407Z,74.27
2024-03-28T01:01:45.313Z,74.17
2024-03-28T01:01:55.318Z,74.17
2024-03-28T01:02:05.330Z,74.27
2024-03-28T01:02:25.355Z,74.17
2024-03-28T01:02:35.338Z,74.17
2024-03-28T01:02:45.297Z,74.38
2024-03-28T01:02:55.297Z,74.27
2024-03-28T01:03:05.386Z,74.17
2024-03-28T01:03:15.288Z,74.27
2024-03-28T01:03:35.378Z,74.21
2024-03-28T01:03:45.470Z,74.27
2024-03-28T01:03:55.325Z,74.27
2024-03-28T01:04:05.306Z,74.17
2024-03-28T01:04:15.328Z,74.27
2024-03-28T01:04:25.342Z,74.27
2024-03-28T01:04:45.367Z,74.27
2024-03-28T01:04:55.353Z,74.14
2024-03-28T01:05:05.390Z,74.27
2024-03-28T01:05:15.306Z,74.17
2024-03-28T01:05:25.310Z,74.31
2024-03-28T01:05:35.358Z,74.27
2024-03-28T01:05:55.305Z,74.27
2024-03-28T01:06:05.294Z,74.17
2024-03-28T01:06:15.313Z,74.27
2024-03-28T01:06:25.365Z,74.17
2024-03-28T01:06:35.312Z,74.17
2024-03-28T01:06:45.361Z,74.27
2024-03-28T01:06:55.352Z,74.38
2024-03-28T01:07:05.317Z,74.17
2024-03-28T01:07:15.463Z,74.27
2024-03-28T01:07:35.326Z,74.17
2024-03-28T01:07:45.434Z,74.24
2024-03-28T01:07:55.430Z,74.17
2024-03-28T01:08:05.423Z,74.17
2024-03-28T01:08:15.333Z,74.27
2024-03-28T01:08:25.299Z,74.38
2024-03-28T01:08:35.329Z,74.17
2024-03-28T01:08:55.596Z,74.17
2024-03-28T01:09:05.297Z,74.27
2024-03-28T01:09:15.318Z,74.17
2024-03-28T01:09:25.266Z,74.38
2024-03-28T01:09:35.294Z,74.27
2024-03-28T01:09:45.297Z,74.27
2024-03-28T01:10:05.276Z,74.27
2024-03-28T01:10:15.330Z,74.31
2024-03-28T01:10:25.289Z,74.27
2024-03-28T01:10:35.272Z,74.48
2024-03-28T01:10:45.325Z,74.38
2024-03-28T01:10:55.377Z,74.48
2024-03-28T01:11:05.327Z,74.31
2024-03-28T01:11:25.305Z,74.48
2024-03-28T01:11:35.418Z,74.38
2024-03-28T01:11:45.259Z,74.58
2024-03-28T01:11:55.296Z,74.68
2024-03-28T01:12:05.282Z,74.82
2024-03-28T01:12:15.266Z,74.92
2024-03-28T01:12:25.336Z,74.92
2024-03-28T01:12:35.327Z,75.12
2024-03-28T01:12:45.320Z,75.32
2024-03-28T01:13:05.258Z,75.46
2024-03-28T01:13:15.279Z,75.52
2024-03-28T01:13:25.309Z,75.46
2024-03-28T01:13:35.247Z,75.76
2024-03-28T01:13:45.305Z,75.67
2024-03-28T01:13:55.296Z,75.76
2024-03-28T01:14:05.333Z,75.87
2024-03-28T01:14:15.270Z,75.97
2024-03-28T01:14:25.317Z,76.07
2024-03-28T01:14:45.294Z,76.31
2024-03-28T01:14:55.302Z,76.41
2024-03-28T01:15:05.278Z,76.51
2024-03-28T01:15:15.368Z,76.61
2024-03-28T01:15:25.240Z,76.72
2024-03-28T01:15:35.238Z,76.82
2024-03-28T01:15:55.273Z,76.95
2024-03-28T01:16:06.032Z,77.02
2024-03-28T01:16:15.315Z,77.22
2024-03-28T01:16:25.482Z,77.22
2024-03-28T01:16:35.251Z,77.26
2024-03-28T01:16:45.249Z,77.47
2024-03-28T01:17:05.270Z,77.67
2024-03-28T01:17:15.288Z,77.81
2024-03-28T01:17:25.237Z,77.81
2024-03-28T01:17:35.289Z,78.01
2024-03-28T01:17:45.298Z,77.97
2024-03-28T01:17:55.266Z,78.21
2024-03-28T01:18:06.128Z,78.17
2024-03-28T01:18:15.364Z,78.31
2024-03-28T01:18:25.237Z,78.31
2024-03-28T01:18:45.300Z,78.31
2024-03-28T01:18:56.045Z,78.52
2024-03-28T01:19:05.270Z,78.41
2024-03-28T01:19:15.615Z,78.52
2024-03-28T01:19:25.318Z,78.52
2024-03-28T01:19:35.286Z,78.62
2024-03-28T01:19:55.252Z,78.72
2024-03-28T01:20:06.062Z,78.72
2024-03-28T01:20:16.044Z,78.72
2024-03-28T01:20:25.247Z,78.72
2024-03-28T01:20:36.030Z,78.72
2024-03-28T01:20:45.223Z,78.82
2024-03-28T01:21:05.234Z,78.72
2024-03-28T01:21:15.210Z,78.72
2024-03-28T01:21:25.266Z,78.72
2024-03-28T01:21:35.222Z,78.72
2024-03-28T01:21:45.214Z,78.72
2024-03-28T01:21:55.262Z,78.72
2024-03-28T01:22:05.285Z,78.72
2024-03-28T01:22:25.354Z,78.62
2024-03-28T01:22:35.312Z,78.62
2024-03-28T01:22:45.237Z,78.62
2024-03-28T01:22:55.237Z,78.62
2024-03-28T01:23:05.216Z,78.52
2024-03-28T01:23:15.333Z,78.62
2024-03-28T01:23:36.089Z,78.52
2024-03-28T01:23:45.235Z,78.62
2024-03-28T01:23:55.263Z,78.62
2024-03-28T01:24:05.212Z,78.52
2024-03-28T01:24:15.339Z,78.48
2024-03-28T01:24:26.089Z,78.41
2024-03-28T01:24:46.090Z,78.21
2024-03-28T01:24:55.223Z,78.21
2024-03-28T01:25:05.304Z,78.17
2024-03-28T01:25:15.262Z,78.28
2024-03-28T01:25:25.237Z,78.31
2024-03-28T01:25:35.416Z,78.28
2024-03-28T01:25:55.232Z,78.31
2024-03-28T01:26:05.221Z,78.21
2024-03-28T01:26:16.076Z,78.08
2024-03-28T01:26:25.282Z,78.17
2024-03-28T01:26:35.251Z,78.17
2024-03-28T01:26:45.232Z,78.21
2024-03-28T01:27:05.241Z,78.31
2024-03-28T01:27:16.032Z,78.31
2024-03-28T01:27:25.207Z,78.28
2024-03-28T01:27:35.220Z,78.21
2024-03-28T01:27:45.218Z,78.17
2024-03-28T01:27:55.196Z,78.08
2024-03-28T01:28:06.205Z,78.08
2024-03-28T01:28:25.198Z,77.87
2024-03-28T01:28:35.276Z,77.77
2024-03-28T01:28:45.172Z,77.67
2024-03-28T01:28:55.230Z,77.67
2024-03-28T01:29:05.212Z,77.56
2024-03-28T01:29:15.176Z,77.47
2024-03-28T01:29:25.264Z,77.47
2024-03-28T01:29:35.642Z,77.36
2024-03-28T01:29:46.107Z,77.26
2024-03-28T01:29:55.210Z,77.22
2024-03-28T01:30:05.229Z,77.16
2024-03-28T01:30:15.257Z,77.02
2024-03-28T01:30:26.034Z,77.16
2024-03-28T01:30:46.109Z,76.82
2024-03-28T01:30:55.193Z,76.72
2024-03-28T01:31:05.186Z,76.61
2024-03-28T01:31:15.189Z,76.72
2024-03-28T01:31:25.203Z,76.61
2024-03-28T01:31:35.207Z,76.72
2024-03-28T01:31:55.293Z,76.72
2024-03-28T01:32:06.067Z,76.72
2024-03-28T01:32:15.217Z,76.82
2024-03-28T01:32:25.241Z,76.82
2024-03-28T01:32:35.234Z,76.82
2024-03-28T01:32:45.182Z,76.92
2024-03-28T01:33:05.170Z,76.98
2024-03-28T01:33:15.176Z,77.12
2024-03-28T01:33:25.179Z,77.12
2024-03-28T01:33:35.163Z,77.16
2024-03-28T01:33:45.162Z,77.36
2024-03-28T01:33:55.209Z,77.33
2024-03-28T01:34:15.194Z,77.56
2024-03-28T01:34:26.048Z,77.56
2024-03-28T01:34:35.262Z,77.67
2024-03-28T01:34:45.259Z,77.77
2024-03-28T01:34:55.179Z,77.87
2024-03-28T01:35:05.272Z,77.87
2024-03-28T01:35:15.216Z,77.97
2024-03-28T01:35:35.171Z,78.08
2024-03-28T01:35:45.185Z,78.17
2024-03-28T01:35:55.184Z,78.17
2024-03-28T01:36:05.171Z,78.31
2024-03-28T01:36:15.306Z,78.38
2024-03-28T01:36:25.205Z,78.48
2024-03-28T01:36:35.242Z,78.52
2024-03-28T01:36:45.183Z,78.62
2024-03-28T01:37:06.064Z,78.72
2024-03-28T01:37:15.221Z,78.76
2024-03-28T01:37:25.176Z,78.41
2024-03-28T01:37:35.173Z,78.31
2024-03-28T01:37:45.220Z,78.41
2024-03-28T01:37:56.084Z,78.52
2024-03-28T01:38:15.129Z,78.82
2024-03-28T01:38:25.181Z,78.86
2024-03-28T01:38:35.219Z,78.82
2024-03-28T01:38:45.245Z,78.72
2024-03-28T01:38:55.235Z,78.86
2024-03-28T01:39:05.198Z,78.92
2024-03-28T01:39:16.053Z,78.82
2024-03-28T01:39:35.172Z,78.55
2024-03-28T01:39:45.195Z,78.66
2024-03-28T01:39:55.182Z,78.66
2024-03-28T01:40:05.247Z,78.45
2024-03-28T01:40:15.136Z,78.05
2024-03-28T01:40:25.195Z,78.01
2024-03-28T01:40:45.155Z,78.15
2024-03-28T01:40:55.195Z,78.15
2024-03-28T01:41:05.156Z,78.15
2024-03-28T01:41:15.179Z,78.05
2024-03-28T01:41:25.142Z,77.74
2024-03-28T01:41:35.160Z,77.74
2024-03-28T01:41:45.208Z,77.70
2024-03-28T01:42:05.120Z,77.94
2024-03-28T01:42:15.112Z,78.05
2024-03-28T01:42:25.161Z,78.11
2024-03-28T01:42:35.170Z,78.15
2024-03-28T01:42:45.119Z,78.31
2024-03-28T01:42:55.190Z,78.41
2024-03-28T01:43:15.308Z,78.45
2024-03-28T01:43:25.195Z,78.31
2024-03-28T01:43:35.185Z,78.11
2024-03-28T01:43:45.123Z,78.01
2024-03-28T01:43:55.218Z,78.01
2024-03-28T01:44:05.135Z,78.11
2024-03-28T01:44:15.175Z,78.15
2024-03-28T01:44:25.134Z,78.11
2024-03-28T01:44:45.149Z,77.91
2024-03-28T01:44:55.172Z,77.74
2024-03-28T01:45:05.194Z,77.53
2024-03-28T01:45:15.129Z,77.60
2024-03-28T01:45:25.108Z,77.60
2024-03-28T01:45:35.166Z,77.64
2024-03-28T01:45:45.179Z,77.64
2024-03-28T01:45:55.211Z,77.44
2024-03-28T01:46:19.950Z,77.33
2024-03-28T01:46:35.743Z,77.33
2024-03-28T01:46:43.365Z,77.33
2024-03-28T01:46:49.376Z,77.40
2024-03-28T01:47:17.154Z,77.64
2024-03-28T01:47:41.969Z,77.29
2024-03-28T01:47:48.524Z,77.20
2024-03-28T01:47:54.100Z,77.23
2024-03-28T01:48:05.211Z,77.33
2024-03-28T01:48:15.161Z,77.29
2024-03-28T01:48:35.203Z,77.40
2024-03-28T01:48:45.143Z,77.44
2024-03-28T01:48:55.087Z,76.79
2024-03-28T01:49:05.139Z,76.48
2024-03-28T01:49:15.096Z,76.31
2024-03-28T01:49:25.101Z,76.52
2024-03-28T01:49:45.119Z,76.62
2024-03-28T01:49:55.136Z,76.72
2024-03-28T01:50:05.112Z,76.72
2024-03-28T01:50:15.943Z,76.62
2024-03-28T01:50:25.099Z,76.82
2024-03-28T01:50:35.229Z,76.79
2024-03-28T01:50:45.097Z,76.42
2024-03-28T01:51:05.211Z,76.07
2024-03-28T01:51:15.172Z,76.11
2024-03-28T01:51:25.132Z,76.31
2024-03-28T01:51:35.083Z,76.28
2024-03-28T01:51:45.160Z,76.42
2024-03-28T01:51:55.091Z,76.52
2024-03-28T01:52:15.118Z,76.42
2024-03-28T01:52:25.154Z,76.31
2024-03-28T01:52:35.117Z,76.18
2024-03-28T01:52:45.118Z,76.42
2024-03-28T01:52:55.126Z,76.62
2024-03-28T01:53:05.118Z,76.62
2024-03-28T01:53:16.107Z,76.72
2024-03-28T01:53:35.076Z,76.72
2024-03-28T01:53:45.079Z,76.82
2024-03-28T01:53:55.096Z,76.62
2024-03-28T01:54:05.102Z,76.72
2024-03-28T01:54:15.121Z,76.59
2024-03-28T01:54:25.077Z,76.42
2024-03-28T01:54:35.137Z,76.21
2024-03-28T01:54:45.115Z,75.91
2024-03-28T01:55:05.078Z,76.01
2024-03-28T01:55:15.093Z,76.31
2024-03-28T01:55:25.268Z,76.42
2024-03-28T01:55:35.282Z,76.52
2024-03-28T01:55:45.105Z,76.52
2024-03-28T01:55:55.084Z,76.42
2024-03-28T01:56:05.163Z,76.21
2024-03-28T01:56:25.090Z,76.04
2024-03-28T01:56:35.254Z,76.01
2024-03-28T01:56:45.112Z,76.01
2024-03-28T01:56:55.078Z,76.11
2024-03-28T01:57:05.098Z,76.07
2024-03-28T01:57:15.218Z,76.01
2024-03-28T01:57:26.088Z,76.11
2024-03-28T01:57:35.100Z,76.11
2024-03-28T01:57:55.066Z,76.11
2024-03-28T01:58:05.076Z,76.21
2024-03-28T01:58:15.047Z,76.21
2024-03-28T01:58:25.132Z,76.11
2024-03-28T01:58:35.103Z,76.01
2024-03-28T01:58:45.100Z,75.91
2024-03-28T01:58:55.087Z,75.91
2024-03-28T01:59:05.086Z,76.01
2024-03-28T01:59:15.126Z,76.01
2024-03-28T01:59:35.164Z,76.11
2024-03-28T01:59:45.048Z,76.07
2024-03-28T01:59:55.130Z,76.11
2024-03-28T02:00:05.068Z,76.11
2024-03-28T02:00:15.074Z,76.11
2024-03-28T02:00:25.057Z,76.01
2024-03-28T02:00:45.136Z,75.30
2024-03-28T02:00:55.140Z,75.30
2024-03-28T02:01:05.079Z,75.30
2024-03-28T02:01:15.114Z,75.30
2024-03-28T02:01:25.149Z,75.30
2024-03-28T02:01:35.129Z,75.50
2024-03-28T02:01:45.203Z,75.60
2024-03-28T02:01:55.158Z,75.60
2024-03-28T02:02:05.055Z,75.60
2024-03-28T02:02:15.142Z,75.67
2024-03-28T02:02:25.079Z,75.70
2024-03-28T02:02:45.149Z,75.60
2024-03-28T02:02:55.102Z,75.50
2024-03-28T02:03:05.135Z,75.60
2024-03-28T02:03:15.114Z,75.60
2024-03-28T02:03:25.072Z,75.60
2024-03-28T02:03:35.631Z,75.40
2024-03-28T02:03:45.160Z,75.09
2024-03-28T02:04:05.059Z,75.20
2024-03-28T02:04:15.070Z,75.30
2024-03-28T02:04:25.036Z,75.30
2024-03-28T02:04:35.640Z,75.40
2024-03-28T02:04:45.129Z,75.60
2024-03-28T02:04:55.031Z,75.60
2024-03-28T02:05:15.085Z,75.50
2024-03-28T02:05:25.614Z,75.60
2024-03-28T02:05:35.042Z,75.30
2024-03-28T02:05:45.169Z,75.30
2024-03-28T02:05:56.018Z,75.20
2024-03-28T02:06:05.073Z,75.43
2024-03-28T02:06:25.155Z,75.20
2024-03-28T02:06:35.068Z,75.30
2024-03-28T02:06:45.095Z,75.09
2024-03-28T02:06:55.037Z,75.20
2024-03-28T02:07:05.043Z,75.20
2024-03-28T02:07:15.042Z,75.20
2024-03-28T02:07:35.038Z,75.09
2024-03-28T02:07:45.551Z,75.23
2024-03-28T02:07:55.221Z,75.23
2024-03-28T02:08:05.050Z,75.23
2024-03-28T02:08:15.079Z,75.30
2024-03-28T02:08:25.027Z,75.30
2024-03-28T02:08:35.161Z,75.30
2024-03-28T02:08:55.056Z,75.20
2024-03-28T02:09:05.096Z,75.20
2024-03-28T02:09:15.014Z,75.13
2024-03-28T02:09:25.014Z,75.13
2024-03-28T02:09:35.019Z,75.06
2024-03-28T02:09:45.037Z,75.13
2024-03-28T02:09:55.096Z,75.09
2024-03-28T02:10:05.160Z,75.20
2024-03-28T02:10:25.058Z,74.89
2024-03-28T02:10:35.042Z,74.89
2024-03-28T02:10:45.049Z,74.99
2024-03-28T02:10:55.062Z,74.99
2024-03-28T02:11:05.000Z,74.99
2024-03-28T02:11:15.007Z,75.13
2024-03-28T02:11:25.064Z,74.99
2024-03-28T02:11:45.005Z,75.23
2024-03-28T02:11:55.573Z,75.09
2024-03-28T02:12:05.009Z,75.13
2024-03-28T02:12:15.006Z,75.30
2024-03-28T02:12:25.068Z,75.09
2024-03-28T02:12:34.983Z,74.82
2024-03-28T02:12:55.014Z,74.58
2024-03-28T02:13:05.010Z,74.72
2024-03-28T02:13:15.072Z,74.72
2024-03-28T02:13:25.023Z,74.89
2024-03-28T02:13:35.002Z,75.02
2024-03-28T02:13:45.020Z,75.09
2024-03-28T02:13:55.084Z,75.09
2024-03-28T02:14:05.606Z,75.09
2024-03-28T02:14:25.051Z,75.20
2024-03-28T02:14:35.012Z,75.09
2024-03-28T02:14:45.024Z,75.13
2024-03-28T02:14:55.066Z,75.09
2024-03-28T02:15:05.732Z,75.09
2024-03-28T02:15:14.971Z,75.20
2024-03-28T02:15:34.985Z,75.20
2024-03-28T02:15:45.565Z,75.09
2024-03-28T02:15:54.977Z,75.20
2024-03-28T02:16:05.589Z,75.20
2024-03-28T02:16:14.987Z,75.23
2024-03-28T02:16:24.971Z,75.23
2024-03-28T02:16:35.102Z,75.13
2024-03-28T02:16:54.982Z,75.30
2024-03-28T02:17:05.003Z,75.30
2024-03-28T02:17:14.969Z,75.33
2024-03-28T02:17:24.972Z,75.23
2024-03-28T02:17:35.007Z,75.23
2024-03-28T02:17:44.962Z,75.20
2024-03-28T02:18:04.986Z,75.09
2024-03-28T02:18:15.058Z,75.09
2024-03-28T02:18:24.984Z,75.20
2024-03-28T02:18:35.069Z,75.13
2024-03-28T02:18:44.975Z,74.79
2024-03-28T02:18:54.980Z,74.41
2024-03-28T02:19:05.557Z,74.41
2024-03-28T02:19:24.987Z,74.41
2024-03-28T02:19:34.970Z,74.28
2024-03-28T02:19:44.977Z,74.21
2024-03-28T02:19:54.992Z,74.21
2024-03-28T02:20:05.572Z,73.91
2024-03-28T02:20:15.023Z,73.67
2024-03-28T02:20:25.124Z,73.50
2024-03-28T02:20:35.009Z,73.77
2024-03-28T02:20:55.073Z,73.67
2024-03-28T02:21:04.933Z,73.91
2024-03-28T02:21:14.981Z,73.97
2024-03-28T02:21:24.964Z,74.01
2024-03-28T02:21:34.943Z,73.97
2024-03-28T02:21:44.946Z,73.91
2024-03-28T02:22:04.976Z,73.36
2024-03-28T02:22:15.572Z,73.47
2024-03-28T02:22:25.085Z,73.47
2024-03-28T02:22:34.988Z,73.57
2024-03-28T02:22:45.567Z,73.47
2024-03-28T02:22:54.997Z,73.60
2024-03-28T02:23:14.948Z,73.57
2024-03-28T02:23:25.027Z,73.50
2024-03-28T02:23:35.595Z,73.67
2024-03-28T02:23:44.973Z,73.57
2024-03-28T02:23:54.926Z,73.67
2024-03-28T02:24:04.998Z,73.50
2024-03-28T02:24:15.001Z,73.71
2024-03-28T02:24:25.092Z,73.80
2024-03-28T02:24:44.978Z,73.50
2024-03-28T02:24:54.929Z,73.60
2024-03-28T02:25:04.961Z,73.50
2024-03-28T02:25:14.945Z,73.50
2024-03-28T02:25:24.966Z,73.40
2024-03-28T02:25:34.987Z,73.50
2024-03-28T02:25:44.980Z,73.71
2024-03-28T02:26:04.952Z,73.67
2024-03-28T02:26:15.550Z,73.60
2024-03-28T02:26:25.109Z,73.47
2024-03-28T02:26:35.079Z,73.60
2024-03-28T02:26:44.928Z,73.36
2024-03-28T02:26:54.926Z,73.50
2024-03-28T02:27:04.938Z,73.16
2024-03-28T02:27:24.958Z,73.50
2024-03-28T02:27:34.947Z,73.40